Time;durP1;ratioP1;P1;durP2;ratioP2;P2;SDS_P1;SDS_P2;PMS_P1;PMS_P2;Temp;Humidity;BMP_temperature;BMP_pressure;BME280_temperature;BME280_humidity;BME280_pressure;Samples;Min_cycle;Max_cycle;Signal;HPM_P1;HPM_P2
2022/09/20 00:00:30;;;;;;;25.50;11.40;;;;;;;10.08;100.00;102174.34;5115915;28;20024;-44
2022/09/20 00:02:55;;;;;;;22.50;11.43;;;;;;;10.07;100.00;102171.69;5116605;28;20057;-45
2022/09/20 00:05:20;;;;;;;20.85;11.23;;;;;;;10.05;100.00;102162.19;5116180;28;20040;-47
2022/09/20 00:07:46;;;;;;;26.20;12.40;;;;;;;10.04;100.00;102162.13;5116025;28;20383;-45
2022/09/20 00:10:11;;;;;;;21.25;11.80;;;;;;;10.00;100.00;102161.06;5116441;28;20055;-48
2022/09/20 00:12:37;;;;;;;21.42;11.68;;;;;;;9.94;100.00;102165.91;5116631;28;20027;-45
2022/09/20 00:15:04;;;;;;;23.60;12.48;;;;;;;9.94;100.00;102163.34;5115732;28;20035;-46
2022/09/20 00:17:29;;;;;;;22.73;12.55;;;;;;;9.94;100.00;102154.72;5116125;28;20390;-45
2022/09/20 00:19:54;;;;;;;25.20;12.88;;;;;;;9.95;100.00;102146.19;5116235;28;20032;-46
2022/09/20 00:22:20;;;;;;;26.80;13.40;;;;;;;9.93;100.00;102150.34;5115470;28;20027;-47
2022/09/20 00:24:46;;;;;;;24.38;12.63;;;;;;;9.94;100.00;102154.72;5116298;28;20043;-47
2022/09/20 00:27:11;;;;;;;21.85;12.50;;;;;;;9.92;100.00;102157.22;5116118;28;20032;-44
2022/09/20 00:29:36;;;;;;;21.42;12.45;;;;;;;9.89;100.00;102152.78;5115369;28;20030;-47
2022/09/20 00:32:02;;;;;;;23.23;13.32;;;;;;;9.90;100.00;102156.22;5116200;28;20024;-44
2022/09/20 00:37:11;;;;;;;37.08;13.75;;;;;;;9.90;100.00;102163.94;5115365;28;20066;-45
2022/09/20 00:39:36;;;;;;;29.80;13.52;;;;;;;9.88;100.00;102171.59;5116073;28;20040;-47
2022/09/20 00:42:01;;;;;;;28.95;14.00;;;;;;;9.88;100.00;102169.03;5115108;28;20076;-48
2022/09/20 00:45:04;;;;;;;24.90;13.50;;;;;;;9.88;100.00;102179.31;5115678;28;20397;-48
2022/09/20 00:47:39;;;;;;;25.85;11.98;;;;;;;9.79;100.00;102171.13;5115952;28;20095;-46
2022/09/20 00:50:11;;;;;;;24.15;11.60;;;;;;;9.73;100.00;102170.78;5114856;28;20037;-45
2022/09/20 00:52:36;;;;;;;19.65;11.43;;;;;;;9.70;100.00;102168.91;5115728;28;20044;-46
2022/09/20 00:55:06;;;;;;;24.25;11.82;;;;;;;9.62;100.00;102166.72;5115518;28;20024;-46
2022/09/20 00:57:34;;;;;;;23.58;11.82;;;;;;;9.62;100.00;102169.28;5114666;28;20028;-45
2022/09/20 01:00:01;;;;;;;23.00;12.35;;;;;;;9.57;100.00;102176.78;5115657;28;20489;-47
2022/09/20 01:02:30;;;;;;;23.15;10.82;;;;;;;9.48;100.00;102169.44;5115415;28;20031;-47
2022/09/20 01:04:56;;;;;;;21.13;11.10;;;;;;;9.44;100.00;102172.66;5114500;28;20058;-45
2022/09/20 01:07:23;;;;;;;25.48;13.20;;;;;;;9.41;100.00;102172.47;5114999;28;20426;-45
2022/09/20 01:09:49;;;;;;;25.45;12.88;;;;;;;9.42;100.00;102169.09;5115305;28;20027;-46
2022/09/20 01:12:28;;;;;;;24.15;12.82;;;;;;;9.42;100.00;102171.66;5114533;28;20093;-45
2022/09/20 01:14:54;;;;;;;24.63;13.30;;;;;;;9.46;100.00;102170.16;5114697;27;20057;-44
2022/09/20 01:17:24;;;;;;;23.25;13.00;;;;;;;9.47;100.00;102167.66;5114337;28;20052;-49
2022/09/20 01:20:09;;;;;;;21.67;12.43;;;;;;;9.53;100.00;102167.13;5115011;28;20019;-45
2022/09/20 01:22:43;;;;;;;25.60;12.73;;;;;;;9.53;100.00;102162.84;5115216;28;20042;-46
2022/09/20 01:25:15;;;;;;;24.40;11.85;;;;;;;9.55;100.00;102166.41;5114560;28;20012;-44
2022/09/20 01:27:49;;;;;;;22.92;12.00;;;;;;;9.55;100.00;102166.41;5115214;28;20102;-47
2022/09/20 01:30:19;;;;;;;27.75;12.05;;;;;;;9.56;100.00;102167.28;5114785;28;20043;-45
2022/09/20 01:32:50;;;;;;;21.52;11.93;;;;;;;9.59;100.00;102162.28;5114207;28;20016;-44
2022/09/20 01:35:20;;;;;;;24.02;12.13;;;;;;;9.57;100.00;102169.06;5114762;28;20073;-47
2022/09/20 01:37:57;;;;;;;27.05;11.65;;;;;;;9.60;100.00;102173.50;5114762;28;20047;-48
2022/09/20 01:40:35;;;;;;;22.08;11.82;;;;;;;9.64;100.00;102172.84;5113677;28;20023;-46
2022/09/20 01:43:21;;;;;;;25.15;12.07;;;;;;;9.63;100.00;102169.41;5114769;28;20061;-45
2022/09/20 01:45:48;;;;;;;22.17;11.07;;;;;;;9.62;100.00;102164.16;5114054;28;20034;-45
2022/09/20 01:48:36;;;;;;;20.33;11.55;;;;;;;9.65;100.00;102161.75;5114483;28;20015;-45
2022/09/20 01:51:27;;;;;;;24.05;11.80;;;;;;;9.66;100.00;102168.69;5114679;28;20024;-46
2022/09/20 01:54:26;;;;;;;23.65;11.57;;;;;;;9.68;100.00;102172.22;5102778;28;20467;-47
2022/09/20 01:56:54;;;;;;;24.33;11.05;;;;;;;9.66;100.00;102168.69;5114376;28;20550;-44
2022/09/20 01:59:56;;;;;;;22.60;11.57;;;;;;;9.69;100.00;102172.28;5113531;28;20047;-46
2022/09/20 02:03:16;;;;;;;20.92;10.57;;;;;;;9.68;100.00;102172.22;5114304;28;20042;-48
2022/09/20 02:06:12;;;;;;;21.08;10.23;;;;;;;9.69;100.00;102168.84;5051443;28;20195;-45
2022/09/20 02:08:58;;;;;;;19.10;10.40;;;;;;;9.66;100.00;102163.53;5113381;28;20039;-46
2022/09/20 02:11:49;;;;;;;22.42;10.27;;;;;;;9.67;100.00;102161.03;5114029;28;20030;-45
2022/09/20 02:14:33;;;;;;;18.33;9.70;;;;;;;9.66;100.00;102163.53;5074710;28;20031;-47
2022/09/20 02:17:19;;;;;;;19.98;9.82;;;;;;;9.64;100.00;102165.13;5113181;28;20374;-47
2022/09/20 02:20:10;;;;;;;19.08;9.43;;;;;;;9.64;100.00;102170.28;5114147;28;20026;-45
2022/09/20 02:23:00;;;;;;;17.77;9.40;;;;;;;9.63;100.00;102173.66;5109086;28;20375;-46
2022/09/20 02:25:28;;;;;;;16.85;9.55;;;;;;;9.62;100.00;102166.72;5113684;28;20391;-46
2022/09/20 02:28:18;;;;;;;18.95;9.00;;;;;;;9.65;100.00;102164.34;5113282;28;20020;-47
2022/09/20 02:30:48;;;;;;;24.08;9.68;;;;;;;9.66;100.00;102158.38;5113860;28;20031;-45
2022/09/20 02:33:46;;;;;;;28.05;9.93;;;;;;;9.68;100.00;102162.81;5113443;28;20073;-44
2022/09/20 02:36:32;;;;;;;18.02;9.30;;;;;;;9.68;100.00;102162.81;5084620;28;20040;-44
2022/09/20 02:39:22;;;;;;;23.67;9.60;;;;;;;9.69;100.00;102153.41;5113461;28;20531;-46
2022/09/20 02:42:05;;;;;;;18.98;9.27;;;;;;;9.71;100.00;102159.53;5113080;28;20301;-48
2022/09/20 02:44:39;;;;;;;17.67;8.10;;;;;;;9.72;100.00;102158.69;5113797;28;20098;-47
2022/09/20 02:47:22;;;;;;;20.83;8.68;;;;;;;9.71;100.00;102167.25;5113463;28;20027;-46
2022/09/20 02:49:58;;;;;;;18.23;8.68;;;;;;;9.70;100.00;102160.31;5112760;28;20027;-46
2022/09/20 02:52:48;;;;;;;19.13;8.60;;;;;;;9.69;100.00;102161.13;5113575;28;20100;-46
2022/09/20 02:55:24;;;;;;;20.55;8.68;;;;;;;9.70;100.00;102161.19;5113419;28;20042;-45
2022/09/20 02:58:14;;;;;;;20.17;8.00;;;;;;;9.71;100.00;102155.25;5112669;28;20096;-50
2022/09/20 03:01:19;;;;;;;20.02;7.65;;;;;;;9.74;100.00;102158.81;5113528;28;20032;-47
2022/09/20 03:04:07;;;;;;;18.40;7.43;;;;;;;9.74;100.00;102151.09;5112747;28;20038;-45
2022/09/20 03:06:42;;;;;;;16.17;6.82;;;;;;;9.74;100.00;102156.22;5113454;28;20028;-49
2022/09/20 03:09:24;;;;;;;27.10;6.90;;;;;;;9.74;100.00;102154.53;5113102;28;20396;-46
2022/09/20 03:11:56;;;;;;;16.13;6.65;;;;;;;9.74;100.00;102156.22;5112768;28;20088;-47
2022/09/20 03:14:36;;;;;;;17.33;6.80;;;;;;;9.76;100.00;102157.19;5113110;28;20031;-50
2022/09/20 03:17:41;;;;;;;19.95;7.45;;;;;;;9.79;100.00;102155.66;5112968;28;20050;-44
2022/09/20 03:20:45;;;;;;;17.30;7.40;;;;;;;9.78;100.00;102158.16;5071707;28;20071;-46
2022/09/20 03:23:34;;;;;;;17.95;6.30;;;;;;;9.74;100.00;102156.22;5113025;28;20028;-50
2022/09/20 03:26:39;;;;;;;13.45;6.75;;;;;;;9.78;100.00;102153.00;5112614;28;20032;-46
2022/09/20 03:29:16;;;;;;;19.23;6.68;;;;;;;9.77;100.00;102156.38;5114839;28;20512;-45
2022/09/20 03:31:58;;;;;;;17.92;6.50;;;;;;;9.76;100.00;102147.78;5116547;28;20067;-46
2022/09/20 03:34:57;;;;;;;18.00;6.70;;;;;;;9.79;100.00;102154.78;5117170;28;20030;-46
2022/09/20 03:37:42;;;;;;;16.63;6.63;;;;;;;9.76;100.00;102155.50;5116964;28;20016;-48
2022/09/20 03:40:28;;;;;;;19.77;7.00;;;;;;;9.80;100.00;102157.44;5116450;28;20031;-45
2022/09/20 03:43:03;;;;;;;18.75;6.55;;;;;;;9.79;100.00;102165.09;5117188;28;20023;-45
2022/09/20 03:45:48;;;;;;;19.15;7.10;;;;;;;9.79;100.00;102159.94;5116123;28;20062;-48
2022/09/20 03:48:37;;;;;;;15.48;7.70;;;;;;;9.77;100.00;102169.25;5116704;28;20038;-46
2022/09/20 03:51:22;;;;;;;14.65;7.18;;;;;;;9.80;100.00;102167.75;5116885;28;20501;-47
2022/09/20 03:54:17;;;;;;;18.08;7.20;;;;;;;9.81;100.00;102163.47;5116261;28;20102;-45
2022/09/20 03:56:48;;;;;;;15.52;7.30;;;;;;;9.82;100.00;102173.84;5117036;28;20024;-49
2022/09/20 03:59:55;;;;;;;20.70;7.95;;;;;;;9.84;100.00;102154.22;5115637;28;20483;-45
2022/09/20 04:02:45;;;;;;;19.17;7.88;;;;;;;9.81;100.00;102151.50;5093315;28;20038;-44
2022/09/20 04:05:25;;;;;;;21.88;7.93;;;;;;;9.81;100.00;102148.91;5116301;28;20416;-46
2022/09/20 04:08:11;;;;;;;15.48;7.75;;;;;;;9.83;100.00;102152.44;5115978;28;20063;-45
2022/09/20 04:11:17;;;;;;;17.92;8.70;;;;;;;9.85;100.00;102155.09;5116600;28;20035;-46
2022/09/20 04:13:49;;;;;;;18.20;8.35;;;;;;;9.85;100.00;102156.00;5075552;28;20055;-46
2022/09/20 04:16:26;;;;;;;14.15;8.00;;;;;;;9.85;100.00;102155.09;5116323;28;20386;-47
2022/09/20 04:19:08;;;;;;;18.73;8.27;;;;;;;9.87;100.00;102151.78;5116425;28;20059;-45
2022/09/20 04:21:55;;;;;;;18.42;9.00;;;;;;;9.88;100.00;102160.44;5115426;28;20077;-44
2022/09/20 04:24:34;;;;;;;20.02;8.25;;;;;;;9.86;100.00;102152.63;5116031;28;20047;-48
2022/09/20 04:27:10;;;;;;;15.80;7.93;;;;;;;9.87;100.00;102154.38;5115499;28;20486;-47
2022/09/20 04:29:51;;;;;;;14.50;7.88;;;;;;;9.89;100.00;102155.34;5116240;28;20031;-45
2022/09/20 04:32:34;;;;;;;18.13;7.63;;;;;;;9.89;100.00;102160.50;5115846;28;20032;-45
2022/09/20 04:38:18;;;;;;;17.90;7.57;;;;;;;9.88;100.00;102148.44;5115771;28;20049;-46
2022/09/20 04:41:15;;;;;;;18.85;7.25;;;;;;;9.85;100.00;102158.56;5115170;28;20028;-49
2022/09/20 04:44:11;;;;;;;15.73;6.97;;;;;;;9.86;100.00;102162.94;5116096;28;20038;-45
2022/09/20 04:46:48;;;;;;;14.98;6.75;;;;;;;9.84;100.00;102168.81;5115961;28;20103;-45
2022/09/20 04:49:40;;;;;;;15.20;7.05;;;;;;;9.84;100.00;102161.06;5114991;28;20019;-45
2022/09/20 04:53:09;;;;;;;14.57;7.40;;;;;;;9.83;100.00;102165.31;5115557;28;20036;-46
2022/09/20 04:55:54;;;;;;;15.93;6.90;;;;;;;9.77;100.00;102167.56;5115242;28;20028;-45
2022/09/20 04:59:05;;;;;;;18.40;7.53;;;;;;;9.80;100.00;102169.41;5115398;28;20012;-44
2022/09/20 05:01:33;;;;;;;14.32;6.55;;;;;;;9.75;100.00;102165.69;5032678;28;20029;-47
2022/09/20 05:04:04;;;;;;;;;;;;;;;9.83;100.00;102169.59;5105088;28;20115;-45
2022/09/20 05:07:15;;;;;;;15.80;7.43;;;;;;;9.79;100.00;102180.53;5115513;28;19919;-46
2022/09/20 05:09:43;;;;;;;14.07;7.18;;;;;;;9.72;100.00;102176.72;5114722;28;20055;-46
2022/09/20 05:12:30;;;;;;;14.77;6.53;;;;;;;9.64;100.00;102178.00;5115143;28;20016;-45
2022/09/20 05:15:17;;;;;;;17.83;7.15;;;;;;;9.62;100.00;102180.50;5115499;28;20137;-45
2022/09/20 05:18:08;;;;;;;14.25;7.03;;;;;;;9.55;100.00;102180.94;5117086;27;20077;-48
2022/09/20 05:21:13;;;;;;;14.23;6.38;;;;;;;9.42;100.00;102179.38;5115182;28;20062;-47
2022/09/20 05:24:00;;;;;;;17.73;7.82;;;;;;;9.39;100.00;102184.38;5113533;28;20084;-47
2022/09/20 05:26:46;;;;;;;15.38;6.75;;;;;;;9.36;100.00;102184.19;5115080;28;20038;-47
2022/09/20 05:29:35;;;;;;;17.43;8.60;;;;;;;9.32;100.00;102184.81;5114994;28;20027;-46
2022/09/20 05:32:37;;;;;;;15.18;7.90;;;;;;;9.31;100.00;102190.75;5114162;28;20023;-47
2022/09/20 05:35:16;;;;;;;21.42;9.10;;;;;;;9.23;100.00;102198.94;5115077;28;20077;-48
2022/09/20 05:38:10;;;;;;;20.15;10.07;;;;;;;9.29;100.00;102200.09;5113899;28;20348;-48
2022/09/20 05:41:13;;;;;;;20.55;10.65;;;;;;;9.34;100.00;102201.25;5114686;28;20092;-49
2022/09/20 05:44:16;;;;;;;20.17;10.48;;;;;;;9.35;100.00;102197.88;5114690;28;20027;-46
2022/09/20 05:47:09;;;;;;;21.92;11.15;;;;;;;9.41;100.00;102207.59;5091635;28;20411;-45
2022/09/20 05:49:54;;;;;;;25.65;11.40;;;;;;;9.45;100.00;102201.81;5114691;28;20028;-47
2022/09/20 05:52:44;;;;;;;22.63;12.10;;;;;;;9.53;100.00;102210.88;5113493;28;20081;-48
2022/09/20 05:55:47;;;;;;;20.30;11.88;;;;;;;9.59;100.00;102216.34;5114257;28;20050;-46
2022/09/20 05:58:51;;;;;;;20.83;11.77;;;;;;;9.66;100.00;102215.03;5114383;28;20024;-48
2022/09/20 06:01:25;;;;;;;25.85;12.38;;;;;;;9.69;100.00;102221.19;5011662;28;20138;-47
2022/09/20 06:04:19;;;;;;;19.20;11.35;;;;;;;9.76;100.00;102214.72;5012044;28;20037;-48
2022/09/20 06:07:13;;;;;;;24.15;10.50;;;;;;;9.80;100.00;102221.81;5084195;28;20031;-46
2022/09/20 06:09:54;;;;;;;20.77;11.20;;;;;;;9.85;100.00;102222.03;5114236;28;20062;-49
2022/09/20 06:13:00;;;;;;;17.60;10.38;;;;;;;9.92;100.00;102225.88;5114110;28;20035;-47
2022/09/20 06:15:40;;;;;;;22.13;10.85;;;;;;;9.92;100.00;102228.44;5011430;28;20037;-51
2022/09/20 06:18:30;;;;;;;19.05;10.27;;;;;;;9.96;100.00;102232.94;5106264;28;20031;-48
2022/09/20 06:21:07;;;;;;;17.70;10.15;;;;;;;10.01;100.00;102231.50;5113365;28;20042;-48
2022/09/20 06:23:35;;;;;;;19.40;10.98;;;;;;;10.07;100.00;102233.53;5114127;28;20073;-44
2022/09/20 06:26:16;;;;;;;17.88;9.77;;;;;;;10.12;100.00;102235.56;5113895;28;20539;-47
2022/09/20 06:28:47;;;;;;;14.18;8.65;;;;;;;10.15;100.00;102237.41;5113122;28;20051;-50
2022/09/20 06:31:13;;;;;;;15.70;9.23;;;;;;;10.18;100.00;102227.25;5117976;27;20023;-45
2022/09/20 06:34:04;;;;;;;17.23;9.80;;;;;;;10.27;100.00;102234.59;5132800;27;20030;-44
2022/09/20 06:42:16;;;;;;;14.98;8.38;;;;;;;10.44;100.00;102235.53;5115970;27;20402;-48
2022/09/20 06:44:42;;;;;;;14.30;8.27;;;;;;;10.53;100.00;102226.59;5127944;27;20024;-47
2022/09/20 06:47:11;;;;;;;13.43;8.20;;;;;;;10.58;100.00;102233.66;5122602;27;20477;-46
2022/09/20 06:49:38;;;;;;;18.38;8.32;;;;;;;10.62;100.00;102235.59;5119030;27;20083;-47
2022/09/20 06:52:05;;;;;;;15.27;8.10;;;;;;;10.64;100.00;102240.03;5130152;27;20101;-46
2022/09/20 06:54:31;;;;;;;16.08;7.80;;;;;;;10.67;100.00;102231.56;5117427;27;20020;-45
2022/09/20 06:57:01;;;;;;;13.20;7.35;;;;;;;10.70;100.00;102234.28;5125111;27;20035;-46
2022/09/20 06:59:27;;;;;;;13.15;7.68;;;;;;;10.78;100.00;102243.31;5125109;28;20102;-43
2022/09/20 07:01:52;;;;;;;15.75;8.20;;;;;;;10.82;100.00;102244.34;5116952;28;20169;-46
2022/09/20 07:04:17;;;;;;;15.77;7.88;;;;;;;10.92;100.00;102245.69;5129350;27;20382;-47
2022/09/20 07:06:42;;;;;;;16.85;7.90;;;;;;;10.96;100.00;102240.78;5118805;28;20019;-46
2022/09/20 07:09:09;;;;;;;16.80;8.27;;;;;;;11.06;100.00;102239.53;5123054;28;20031;-44
2022/09/20 07:11:35;;;;;;;16.92;7.63;;;;;;;11.09;100.00;102238.81;5126032;28;20103;-46
2022/09/20 07:14:01;;;;;;;11.77;7.07;;;;;;;11.16;100.00;102230.56;5116392;28;20467;-43
2022/09/20 07:16:26;;;;;;;15.50;7.28;;;;;;;11.24;100.00;102242.16;5115742;28;20023;-46
2022/09/20 07:18:52;;;;;;;16.35;7.35;;;;;;;11.24;100.00;102238.69;5126069;28;20721;-46
2022/09/20 07:21:19;;;;;;;15.75;8.32;;;;;;;11.33;100.00;102247.75;5123212;28;20035;-48
2022/09/20 07:23:45;;;;;;;14.35;7.07;;;;;;;11.36;100.00;102244.44;5117826;28;20047;-48
2022/09/20 07:26:26;;;;;;;12.65;7.60;;;;;;;11.51;100.00;102241.72;5120376;28;20039;-48
2022/09/20 07:28:52;;;;;;;15.23;7.28;;;;;;;11.58;100.00;102243.81;5125991;28;20015;-46
2022/09/20 07:31:19;;;;;;;11.85;6.47;;;;;;;11.63;100.00;102246.59;5122505;28;20184;-48
2022/09/20 07:33:45;;;;;;;12.85;6.70;;;;;;;11.69;100.00;102252.06;5133204;28;20054;-47
2022/09/20 07:36:11;;;;;;;14.77;6.93;;;;;;;11.76;100.00;102253.22;5133433;28;20053;-45
2022/09/20 07:38:37;;;;;;;12.95;7.05;;;;;;;11.97;100.00;102255.97;5132438;28;20047;-47
2022/09/20 07:41:02;;;;;;;12.40;7.10;;;;;;;12.12;100.00;102251.50;5132135;28;20050;-47
2022/09/20 07:43:29;;;;;;;13.75;6.43;;;;;;;12.28;100.00;102258.25;5133103;28;20023;-48
2022/09/20 07:45:56;;;;;;;15.25;6.18;;;;;;;12.35;99.54;102255.09;5132750;28;20027;-48
2022/09/20 07:48:24;;;;;;;14.52;6.38;;;;;;;12.44;99.71;102258.94;5126944;28;20028;-48
2022/09/20 07:51:00;;;;;;;12.02;6.28;;;;;;;12.58;99.70;102264.75;5119581;28;20088;-45
2022/09/20 07:53:26;;;;;;;11.90;5.40;;;;;;;12.66;98.40;102268.53;5113857;28;20054;-45
2022/09/20 07:56:02;;;;;;;15.90;6.13;;;;;;;12.72;96.67;102273.06;5112819;28;20051;-44
2022/09/20 07:58:29;;;;;;;13.85;5.18;;;;;;;12.68;96.51;102274.66;5113315;28;20424;-48
2022/09/20 08:01:00;;;;;;;14.15;5.18;;;;;;;12.73;97.93;102273.16;5115458;28;20024;-46
2022/09/20 08:03:27;;;;;;;9.77;4.88;;;;;;;12.75;96.15;102271.50;5111932;28;20050;-48
2022/09/20 08:05:58;;;;;;;12.63;5.03;;;;;;;12.79;94.56;102277.72;5120694;28;20023;-47
2022/09/20 08:08:24;;;;;;;13.38;4.43;;;;;;;12.77;93.57;102279.34;5119376;28;20024;-48
2022/09/20 08:10:49;;;;;;;11.15;4.32;;;;;;;12.80;94.58;102274.31;5114234;28;20051;-47
2022/09/20 08:13:15;;;;;;;11.15;4.55;;;;;;;12.79;94.09;102277.72;5111910;28;20027;-47
2022/09/20 08:15:41;;;;;;;14.40;4.95;;;;;;;12.87;94.32;102275.47;5113678;28;20477;-44
2022/09/20 08:18:07;;;;;;;16.08;4.53;;;;;;;13.00;94.30;102267.38;5118039;27;20023;-46
2022/09/20 08:20:37;;;;;;;8.57;4.47;;;;;;;13.02;91.97;102269.22;5124005;27;20027;-48
2022/09/20 08:23:04;;;;;;;12.35;4.30;;;;;;;13.21;90.39;102266.53;5123521;27;20145;-47
2022/09/20 08:25:30;;;;;;;10.88;3.78;;;;;;;13.26;87.76;102272.78;5117593;27;20020;-47
2022/09/20 08:27:55;;;;;;;14.27;4.53;;;;;;;13.27;87.33;102264.19;5115616;28;20093;-47
2022/09/20 08:30:22;;;;;;;12.27;3.58;;;;;;;13.48;87.21;102267.69;5114186;27;20401;-43
2022/09/20 08:32:47;;;;;;;8.80;3.50;;;;;;;13.55;86.83;102273.13;5121229;27;20517;-44
2022/09/20 08:35:13;;;;;;;20.52;4.20;;;;;;;13.66;85.28;102279.63;5123618;27;20487;-47
2022/09/20 08:37:40;;;;;;;14.68;4.57;;;;;;;13.61;85.63;102278.56;5122633;27;20383;-43
2022/09/20 08:40:06;;;;;;;11.05;3.53;;;;;;;13.81;87.00;102281.94;5132692;27;20054;-48
2022/09/20 08:42:35;;;;;;;8.73;2.67;;;;;;;13.85;82.87;102282.94;5125155;27;20382;-44
2022/09/20 08:45:04;;;;;;;15.95;3.38;;;;;;;13.69;81.23;102282.34;5127083;27;20020;-44
2022/09/20 08:47:37;;;;;;;10.20;3.28;;;;;;;13.82;82.81;102292.34;5125153;27;20031;-44
2022/09/20 08:50:05;;;;;;;9.43;2.80;;;;;;;14.12;80.42;102288.31;5122349;27;20087;-45
2022/09/20 08:52:35;;;;;;;7.22;2.20;;;;;;;14.29;80.75;102301.91;5125815;27;20122;-45
2022/09/20 08:55:01;;;;;;;6.60;1.85;;;;;;;14.56;78.99;102294.25;5123666;27;20047;-47
2022/09/20 08:57:31;;;;;;;11.18;2.10;;;;;;;14.69;77.67;102298.19;5121048;27;20076;-44
2022/09/20 09:00:01;;;;;;;12.07;2.00;;;;;;;14.77;75.02;102301.97;5121394;27;20030;-45
2022/09/20 09:02:30;;;;;;;11.50;1.98;;;;;;;14.90;71.78;102305.88;5124893;27;20038;-45
2022/09/20 09:04:56;;;;;;;11.88;2.72;;;;;;;14.77;69.28;102298.47;5115189;28;20479;-48
2022/09/20 09:07:23;;;;;;;10.63;1.90;;;;;;;15.61;71.21;102297.84;5115264;28;20031;-43
2022/09/20 09:09:52;;;;;;;9.63;2.30;;;;;;;15.93;71.69;102294.53;5114696;28;20024;-48
2022/09/20 09:12:25;;;;;;;5.90;2.08;;;;;;;15.98;67.78;102300.75;5112730;27;20382;-44
2022/09/20 09:14:56;;;;;;;7.55;2.25;;;;;;;16.13;67.55;102301.22;5122706;27;20080;-44
2022/09/20 09:17:25;;;;;;;7.40;1.63;;;;;;;16.03;67.70;102299.16;5114029;28;20481;-46
2022/09/20 09:19:58;;;;;;;9.48;1.88;;;;;;;15.99;69.55;102301.66;5114932;28;20482;-47
2022/09/20 09:22:42;;;;;;;10.65;1.98;;;;;;;15.98;68.23;102300.75;5114181;28;20047;-49
2022/09/20 09:25:18;;;;;;;11.85;1.90;;;;;;;15.88;68.36;102298.69;5114924;28;20085;-48
2022/09/20 09:27:56;;;;;;;7.70;1.58;;;;;;;15.93;67.62;102297.13;5114490;28;20057;-48
2022/09/20 09:30:35;;;;;;;10.15;1.70;;;;;;;16.01;65.76;102298.25;5114129;28;20110;-46
2022/09/20 09:33:14;;;;;;;10.52;1.90;;;;;;;16.09;68.64;102303.69;5117456;27;20395;-48
2022/09/20 09:35:39;;;;;;;14.23;1.75;;;;;;;16.07;66.19;102301.03;5114905;28;20064;-46
2022/09/20 09:38:16;;;;;;;9.65;1.60;;;;;;;16.03;67.07;102299.16;5113694;28;20016;-46
2022/09/20 09:40:51;;;;;;;13.13;1.77;;;;;;;15.94;68.08;102309.28;5114494;28;20044;-49
2022/09/20 09:43:23;;;;;;;13.43;2.00;;;;;;;15.59;66.89;102307.31;5114589;28;20050;-44
2022/09/20 09:45:48;;;;;;;9.85;2.00;;;;;;;15.63;68.36;102298.81;5114008;28;20028;-47
2022/09/20 09:48:19;;;;;;;12.90;2.20;;;;;;;15.59;67.29;102312.50;5114248;28;20049;-48
2022/09/20 09:50:46;;;;;;;11.68;1.75;;;;;;;15.50;68.17;102311.34;5116613;27;20023;-44
2022/09/20 09:53:15;;;;;;;7.85;1.50;;;;;;;15.36;66.34;102309.16;5114299;28;20099;-47
2022/09/20 09:56:01;;;;;;;9.40;1.67;;;;;;;15.45;71.05;102317.28;5114599;28;20020;-48
2022/09/20 09:58:39;;;;;;;9.50;1.70;;;;;;;15.30;69.43;102312.44;5113469;28;20126;-48
2022/09/20 10:01:12;;;;;;;12.10;1.60;;;;;;;15.06;67.79;102312.47;5113823;28;20069;-44
2022/09/20 10:03:55;;;;;;;7.57;1.60;;;;;;;14.96;69.53;102319.09;5114419;28;20054;-48
2022/09/20 10:06:29;;;;;;;10.43;1.80;;;;;;;14.89;69.79;102321.41;5113445;28;20035;-45
2022/09/20 10:09:08;;;;;;;8.63;1.75;;;;;;;14.81;68.84;102319.41;5117118;27;20043;-45
2022/09/20 10:12:11;;;;;;;19.25;2.08;;;;;;;14.93;70.48;102318.09;5113922;28;20027;-45
2022/09/20 10:14:57;;;;;;;8.70;1.70;;;;;;;15.05;69.44;102318.50;5114124;28;20042;-45
2022/09/20 10:17:38;;;;;;;8.52;1.83;;;;;;;15.13;69.13;102311.88;5113832;28;20124;-46
2022/09/20 10:20:33;;;;;;;10.27;1.85;;;;;;;15.14;69.03;102313.66;5113078;28;20031;-46
2022/09/20 10:23:43;;;;;;;13.30;1.92;;;;;;;15.25;69.71;102313.13;5114000;28;20027;-47
2022/09/20 10:26:32;;;;;;;9.85;1.70;;;;;;;15.64;70.57;102316.13;5112750;28;20027;-48
2022/09/20 10:29:08;;;;;;;13.15;2.33;;;;;;;16.62;68.41;102314.75;5113834;28;20031;-48
2022/09/20 10:31:59;;;;;;;10.20;2.20;;;;;;;17.27;66.84;102300.00;5113894;28;20455;-45
2022/09/20 10:34:53;;;;;;;13.05;2.13;;;;;;;18.01;64.29;102304.41;5112799;28;20019;-48
2022/09/20 10:37:32;;;;;;;8.00;1.90;;;;;;;18.25;62.65;102305.75;5113558;28;20030;-47
2022/09/20 10:40:20;;;;;;;7.53;1.67;;;;;;;17.98;62.45;102298.22;5112339;28;20074;-49
2022/09/20 10:45:57;;;;;;;11.57;2.22;;;;;;;18.03;61.28;102307.03;5113880;28;20391;-46
2022/09/20 10:48:37;;;;;;;9.40;1.70;;;;;;;18.50;57.60;102303.66;5112651;28;20039;-46
2022/09/20 10:51:11;;;;;;;10.38;1.60;;;;;;;19.20;54.74;102311.09;5113499;28;20111;-49
2022/09/20 10:53:47;;;;;;;11.48;2.05;;;;;;;18.59;53.17;102309.06;5113640;28;20043;-47
2022/09/20 10:56:22;;;;;;;11.82;1.85;;;;;;;17.83;58.61;102306.53;5113045;28;20027;-46
2022/09/20 10:59:03;;;;;;;9.68;1.52;;;;;;;17.13;58.69;102309.19;5113588;28;20032;-49
2022/09/20 11:01:56;;;;;;;10.27;2.17;;;;;;;16.73;60.39;102317.69;5112302;28;20047;-46
2022/09/20 11:04:47;;;;;;;8.70;1.42;;;;;;;17.01;62.03;102314.97;5113261;28;20382;-46
2022/09/20 11:07:23;;;;;;;9.63;1.92;;;;;;;17.70;59.96;102314.09;5113220;28;20055;-48
2022/09/20 11:10:03;;;;;;;12.10;1.58;;;;;;;19.27;53.88;102315.56;5112409;28;20080;-47
2022/09/20 11:12:41;;;;;;;11.57;2.05;;;;;;;19.32;55.14;102313.91;5113222;28;20034;-47
2022/09/20 11:15:22;;;;;;;9.98;1.77;;;;;;;18.40;54.62;102321.75;5112416;28;20024;-46
2022/09/20 11:18:02;;;;;;;7.78;2.22;;;;;;;17.72;56.13;102325.44;5113381;28;20024;-45
2022/09/20 11:20:31;;;;;;;7.40;1.50;;;;;;;17.14;56.23;102324.00;5113044;28;20029;-47
2022/09/20 11:23:02;;;;;;;7.43;1.30;;;;;;;16.99;58.43;102332.28;5112412;28;20446;-46
2022/09/20 11:25:36;;;;;;;9.10;1.50;;;;;;;16.91;57.95;102322.56;5113093;28;20028;-47
2022/09/20 11:28:10;;;;;;;10.70;1.50;;;;;;;16.89;59.24;102325.91;5113117;28;20493;-47
2022/09/20 11:30:43;;;;;;;7.38;1.20;;;;;;;16.95;59.18;102331.31;5112459;28;20184;-46
2022/09/20 11:33:27;;;;;;;10.18;1.60;;;;;;;16.98;59.01;102328.81;5113135;28;20039;-45
2022/09/20 11:35:58;;;;;;;9.07;1.75;;;;;;;17.22;59.46;102331.19;5112802;28;20027;-47
2022/09/20 11:38:32;;;;;;;13.35;1.55;;;;;;;17.00;58.46;102334.91;5112330;28;20032;-49
2022/09/20 11:41:07;;;;;;;6.97;1.40;;;;;;;16.99;60.05;102337.47;5112927;28;20497;-45
2022/09/20 11:43:34;;;;;;;9.20;1.40;;;;;;;16.59;60.36;102337.22;5112475;28;20036;-49
2022/09/20 11:46:06;;;;;;;5.22;1.23;;;;;;;16.28;60.48;102344.13;5113168;28;20015;-47
2022/09/20 11:48:39;;;;;;;7.07;1.70;;;;;;;16.09;61.79;102351.38;5113096;28;20114;-49
2022/09/20 11:51:13;;;;;;;9.65;1.73;;;;;;;15.86;63.50;102347.19;5115514;28;20035;-44
2022/09/20 11:54:14;;;;;;;7.00;1.35;;;;;;;15.60;64.64;102349.78;5116771;28;20028;-49
2022/09/20 11:56:49;;;;;;;6.35;1.60;;;;;;;15.18;66.13;102347.50;5116955;28;20029;-46
2022/09/20 11:59:27;;;;;;;12.25;1.92;;;;;;;14.93;66.99;102344.91;5115818;28;20429;-50
2022/09/20 12:01:55;;;;;;;8.15;1.40;;;;;;;14.57;66.55;102352.22;5116338;28;20031;-49
2022/09/20 12:04:28;;;;;;;6.90;1.42;;;;;;;14.34;67.94;102341.84;5115557;28;20486;-49
2022/09/20 12:07:04;;;;;;;8.90;1.70;;;;;;;14.15;69.45;102354.13;5116644;28;20076;-45
2022/09/20 12:09:37;;;;;;;7.20;1.83;;;;;;;14.10;70.23;102347.88;5116575;28;20051;-48
2022/09/20 12:12:20;;;;;;;11.15;2.13;;;;;;;14.12;69.49;102346.22;5115762;28;20422;-46
2022/09/20 12:14:54;;;;;;;6.10;1.23;;;;;;;14.16;69.25;102348.13;5116664;28;20023;-47
2022/09/20 12:17:44;;;;;;;4.93;1.08;;;;;;;14.35;68.89;102347.94;5116255;28;20042;-45
2022/09/20 12:20:31;;;;;;;13.75;1.70;;;;;;;14.72;69.01;102344.13;5115264;28;20023;-46